createdAt,value
2018-03-30T00:01:55.174Z,20.20
2018-03-30T00:04:22.779Z,20.20
2018-03-30T00:06:50.756Z,20.20
2018-03-30T00:09:30.416Z,20.20
2018-03-30T00:11:57.986Z,20.20
2018-03-30T00:14:25.736Z,20.20
2018-03-30T00:16:53.427Z,20.20
2018-03-30T00:19:21.073Z,20.10
2018-03-30T00:21:48.854Z,20.20
2018-03-30T00:24:16.476Z,20.10
2018-03-30T00:26:44.292Z,20.10
2018-03-30T00:29:12.130Z,20.10
2018-03-30T00:31:39.811Z,20.10
2018-03-30T00:34:07.414Z,20.10
2018-03-30T00:36:35.323Z,20.10
2018-03-30T00:39:02.938Z,20.10
2018-03-30T00:41:30.598Z,20.10
2018-03-30T00:43:58.251Z,20.10
2018-03-30T00:46:26.694Z,20.00
2018-03-30T00:48:54.364Z,20.00
2018-03-30T00:51:22.150Z,20.00
2018-03-30T00:53:50.718Z,20.00
2018-03-30T00:56:18.559Z,20.00
2018-03-30T00:58:46.818Z,20.00
2018-03-30T01:01:14.322Z,20.00
2018-03-30T01:03:41.855Z,20.00
2018-03-30T01:06:09.820Z,20.00
2018-03-30T01:08:37.449Z,20.00
2018-03-30T01:11:10.100Z,20.00
2018-03-30T01:13:38.416Z,19.90
2018-03-30T01:16:06.067Z,20.00
2018-03-30T01:18:34.082Z,20.00
2018-03-30T01:21:01.754Z,20.00
2018-03-30T01:23:29.418Z,20.00
2018-03-30T01:25:57.091Z,20.00
2018-03-30T01:28:25.371Z,19.90
2018-03-30T01:30:53.698Z,19.90
2018-03-30T01:33:21.235Z,19.90
2018-03-30T01:35:48.856Z,19.90
2018-03-30T01:38:17.158Z,19.90
2018-03-30T01:40:44.859Z,19.90
2018-03-30T01:43:12.410Z,19.90
2018-03-30T01:45:40.189Z,19.90
2018-03-30T01:48:07.900Z,19.90
2018-03-30T01:50:35.592Z,19.90
2018-03-30T01:53:03.413Z,19.90
2018-03-30T01:55:31.818Z,19.90
2018-03-30T01:57:59.492Z,19.90
2018-03-30T02:00:27.282Z,19.90
2018-03-30T02:02:54.892Z,19.90
2018-03-30T02:05:22.543Z,19.90
2018-03-30T02:07:51.192Z,19.90
2018-03-30T02:10:19.055Z,19.80
2018-03-30T02:12:46.710Z,19.80
2018-03-30T02:15:14.343Z,19.80
2018-03-30T02:17:42.255Z,19.80
2018-03-30T02:20:09.943Z,19.80
2018-03-30T02:22:38.272Z,19.80
2018-03-30T02:25:06.132Z,19.80
2018-03-30T02:27:34.012Z,19.80
2018-03-30T02:30:01.537Z,19.80
2018-03-30T02:32:29.270Z,19.80
2018-03-30T02:34:57.612Z,19.80
2018-03-30T02:37:25.132Z,19.80
2018-03-30T02:39:52.909Z,19.80
2018-03-30T02:42:20.692Z,19.80
2018-03-30T02:44:48.469Z,19.80
2018-03-30T02:47:16.300Z,19.80
2018-03-30T02:49:44.014Z,19.80
2018-03-30T02:52:12.408Z,19.80
2018-03-30T02:54:40.721Z,19.70
2018-03-30T02:57:08.412Z,19.70
2018-03-30T02:59:36.058Z,19.70
2018-03-30T03:02:03.827Z,19.70
2018-03-30T03:04:31.420Z,19.70
2018-03-30T03:06:59.068Z,19.70
2018-03-30T03:09:26.639Z,19.70
2018-03-30T03:11:54.312Z,19.70
2018-03-30T03:14:22.946Z,19.70
2018-03-30T03:16:50.818Z,19.70
2018-03-30T03:19:18.495Z,19.70
2018-03-30T03:21:46.246Z,19.70
2018-03-30T03:24:13.939Z,19.70
2018-03-30T03:26:41.777Z,19.70
2018-03-30T03:29:09.406Z,19.70
2018-03-30T03:31:37.070Z,19.70
2018-03-30T03:34:04.670Z,19.70
2018-03-30T03:36:32.329Z,19.70
2018-03-30T03:39:00.290Z,19.70
2018-03-30T03:41:27.951Z,19.70
2018-03-30T03:43:55.679Z,19.70
2018-03-30T03:46:23.210Z,19.70
2018-03-30T03:48:51.547Z,19.70
2018-03-30T03:51:19.327Z,19.60
2018-03-30T03:53:47.212Z,19.60
2018-03-30T03:56:15.538Z,19.60
2018-03-30T03:58:43.829Z,19.60
2018-03-30T04:01:11.467Z,19.60
2018-03-30T04:03:39.066Z,19.60
2018-03-30T04:06:07.315Z,19.60
2018-03-30T04:08:34.871Z,19.60
2018-03-30T04:11:02.434Z,19.60
2018-03-30T04:13:30.062Z,19.60
2018-03-30T04:15:57.682Z,19.60
2018-03-30T04:18:25.320Z,19.60
2018-03-30T04:20:52.959Z,19.60
2018-03-30T04:23:20.637Z,19.60
2018-03-30T04:25:48.318Z,19.60
2018-03-30T04:28:15.866Z,19.60
2018-03-30T04:30:43.508Z,19.60
2018-03-30T04:33:11.146Z,19.60
2018-03-30T04:35:39.546Z,19.60
2018-03-30T04:38:07.080Z,19.50
2018-03-30T04:40:34.994Z,19.60
2018-03-30T04:43:02.604Z,19.50
2018-03-30T04:45:30.138Z,19.50
2018-03-30T04:47:57.780Z,19.50
2018-03-30T04:50:25.426Z,19.50
2018-03-30T04:52:53.063Z,19.50
2018-03-30T04:55:21.352Z,19.50
2018-03-30T04:57:49.243Z,19.50
2018-03-30T05:00:16.948Z,19.60
2018-03-30T05:02:45.215Z,19.60
2018-03-30T05:05:13.579Z,19.60
2018-03-30T05:07:41.279Z,19.60
2018-03-30T05:10:08.845Z,19.60
2018-03-30T05:12:36.405Z,19.70
2018-03-30T05:15:03.964Z,19.70
2018-03-30T05:17:31.507Z,19.70
2018-03-30T05:19:59.030Z,19.70
2018-03-30T05:22:26.703Z,19.70
2018-03-30T05:24:54.525Z,19.70
2018-03-30T05:27:22.179Z,19.80
2018-03-30T05:29:49.851Z,19.80
2018-03-30T05:32:17.564Z,19.80
2018-03-30T05:34:45.920Z,19.80
2018-03-30T05:37:13.630Z,19.70
2018-03-30T05:39:41.286Z,19.80
2018-03-30T05:42:09.530Z,19.80
2018-03-30T05:47:42.464Z,19.80
2018-03-30T05:50:10.135Z,19.80
2018-03-30T05:52:38.447Z,19.80
2018-03-30T05:55:06.095Z,19.80
2018-03-30T05:57:33.774Z,19.80
2018-03-30T06:00:01.394Z,19.80
2018-03-30T06:02:28.910Z,19.80
2018-03-30T06:04:56.464Z,19.80
2018-03-30T06:07:23.998Z,19.90
2018-03-30T06:09:51.768Z,19.80
2018-03-30T06:12:19.330Z,19.90
2018-03-30T06:14:46.950Z,19.90
2018-03-30T06:17:14.642Z,19.90
2018-03-30T06:19:42.527Z,19.90
2018-03-30T06:22:11.983Z,19.80
2018-03-30T06:24:39.495Z,19.80
2018-03-30T06:27:07.016Z,19.90
2018-03-30T06:29:34.640Z,19.90
2018-03-30T06:32:02.975Z,19.80
2018-03-30T06:34:30.743Z,19.80
2018-03-30T06:36:58.608Z,19.90
2018-03-30T06:39:26.256Z,19.90
2018-03-30T06:41:54.694Z,19.90
2018-03-30T06:44:22.282Z,19.80
2018-03-30T06:46:50.158Z,19.90
2018-03-30T06:49:17.692Z,19.80
2018-03-30T06:51:45.311Z,19.80
2018-03-30T06:54:12.907Z,19.80
2018-03-30T06:56:40.531Z,19.80
2018-03-30T06:59:08.079Z,19.80
2018-03-30T07:01:35.653Z,19.80
2018-03-30T07:04:03.189Z,19.80
2018-03-30T07:06:30.707Z,19.80
2018-03-30T07:08:59.192Z,19.80
2018-03-30T07:11:26.826Z,19.80
2018-03-30T07:13:55.491Z,19.80
2018-03-30T07:16:23.219Z,19.80
2018-03-30T07:18:50.825Z,19.80
2018-03-30T07:21:19.276Z,19.80
2018-03-30T07:23:46.889Z,19.80
2018-03-30T07:26:14.607Z,19.80
2018-03-30T07:28:42.190Z,19.80
2018-03-30T07:31:09.799Z,19.80
2018-03-30T07:33:37.467Z,19.80
2018-03-30T07:36:05.048Z,19.80
2018-03-30T07:38:33.812Z,19.90
2018-03-30T07:41:01.367Z,19.80
2018-03-30T07:43:28.936Z,19.90
2018-03-30T07:45:56.535Z,19.90
2018-03-30T07:48:24.872Z,19.90
2018-03-30T07:50:52.510Z,19.90
2018-03-30T07:53:20.068Z,19.90
2018-03-30T07:55:48.277Z,19.90
2018-03-30T07:58:15.969Z,19.90
2018-03-30T08:00:44.326Z,20.00
2018-03-30T08:03:12.783Z,20.00
2018-03-30T08:05:40.845Z,19.90
2018-03-30T08:08:08.423Z,20.00
2018-03-30T08:10:36.025Z,20.00
2018-03-30T08:13:04.719Z,20.00
2018-03-30T08:15:33.300Z,20.00
2018-03-30T08:18:01.716Z,20.00
2018-03-30T08:20:29.407Z,20.00
2018-03-30T08:22:57.028Z,20.10
2018-03-30T08:25:24.642Z,20.10
2018-03-30T08:27:52.980Z,20.10
2018-03-30T08:30:20.591Z,20.10
2018-03-30T08:32:49.335Z,20.10
2018-03-30T08:35:17.039Z,20.10
2018-03-30T08:37:45.404Z,20.20
2018-03-30T08:40:13.263Z,20.10
2018-03-30T08:42:41.655Z,20.10
2018-03-30T08:45:10.179Z,20.20
2018-03-30T08:47:38.151Z,20.20
2018-03-30T08:50:05.767Z,20.20
2018-03-30T08:52:33.335Z,20.20
2018-03-30T08:55:01.634Z,20.30
2018-03-30T08:57:29.291Z,20.20
2018-03-30T08:59:56.971Z,20.30
2018-03-30T09:02:24.574Z,20.30
2018-03-30T09:04:52.211Z,20.30
2018-03-30T09:07:19.754Z,20.40
2018-03-30T09:09:47.301Z,20.40
2018-03-30T09:12:15.129Z,20.40
2018-03-30T09:14:43.520Z,20.40
2018-03-30T09:20:01.995Z,20.40
2018-03-30T09:22:30.527Z,20.40
2018-03-30T09:24:58.063Z,20.40
2018-03-30T09:27:25.599Z,20.40
2018-03-30T09:29:54.086Z,20.50
2018-03-30T09:32:21.792Z,20.50
2018-03-30T09:34:49.522Z,20.50
2018-03-30T09:37:17.155Z,20.50
2018-03-30T09:39:44.802Z,20.50
2018-03-30T09:42:13.175Z,20.50
2018-03-30T09:44:41.680Z,20.60
2018-03-30T09:47:09.235Z,20.60
2018-03-30T09:49:36.795Z,20.60
2018-03-30T09:52:04.523Z,20.60
2018-03-30T09:54:33.640Z,20.60
2018-03-30T09:57:02.498Z,20.70
2018-03-30T09:59:30.120Z,20.70
2018-03-30T10:01:57.767Z,20.70
2018-03-30T10:04:28.365Z,20.70
2018-03-30T10:06:56.167Z,20.70
2018-03-30T10:09:23.795Z,20.70
2018-03-30T10:11:52.091Z,20.80
2018-03-30T10:14:20.386Z,20.70
2018-03-30T10:16:48.055Z,20.70
2018-03-30T10:19:15.791Z,20.80
2018-03-30T10:21:43.608Z,20.80
2018-03-30T10:24:11.289Z,20.80
2018-03-30T10:26:38.867Z,20.90
2018-03-30T10:29:06.439Z,20.90
2018-03-30T10:31:52.862Z,20.80
2018-03-30T10:34:20.719Z,20.80
2018-03-30T10:36:48.385Z,20.80
2018-03-30T10:39:16.014Z,20.80
2018-03-30T10:41:44.386Z,20.80
2018-03-30T10:44:11.995Z,20.80
2018-03-30T10:46:39.583Z,20.90
2018-03-30T10:49:07.169Z,20.90
2018-03-30T10:51:35.586Z,20.90
2018-03-30T10:54:03.292Z,20.90
2018-03-30T10:56:30.863Z,20.90
2018-03-30T10:58:59.011Z,20.80
2018-03-30T11:01:26.905Z,20.80
2018-03-30T11:03:55.256Z,20.90
2018-03-30T11:06:23.080Z,20.80
2018-03-30T11:08:50.751Z,20.80
2018-03-30T11:11:18.615Z,20.80
2018-03-30T11:13:46.235Z,20.90
2018-03-30T11:16:13.880Z,20.80
2018-03-30T11:18:41.430Z,20.80
2018-03-30T11:21:09.074Z,20.80
2018-03-30T11:23:36.818Z,20.80
2018-03-30T11:26:04.353Z,20.80
2018-03-30T11:28:32.686Z,20.70
2018-03-30T11:31:00.558Z,20.70
2018-03-30T11:33:28.236Z,20.80
2018-03-30T11:35:55.935Z,20.70
2018-03-30T11:38:23.564Z,20.70
2018-03-30T11:40:51.200Z,20.70
2018-03-30T11:43:18.760Z,20.70
2018-03-30T11:45:46.582Z,20.70
2018-03-30T11:48:14.272Z,20.70
2018-03-30T11:50:41.914Z,20.70
2018-03-30T11:53:09.644Z,20.60
2018-03-30T11:55:37.510Z,20.70
2018-03-30T11:58:05.265Z,20.60
2018-03-30T12:00:32.887Z,20.60
2018-03-30T12:03:00.454Z,20.60
2018-03-30T12:05:28.018Z,20.60
2018-03-30T12:07:55.798Z,20.60
2018-03-30T12:10:23.458Z,20.60
2018-03-30T12:12:52.699Z,20.60
2018-03-30T12:15:20.378Z,20.60
2018-03-30T12:17:48.000Z,20.60
2018-03-30T12:20:16.816Z,20.70
2018-03-30T12:22:44.570Z,20.70
2018-03-30T12:25:12.151Z,20.70
2018-03-30T12:27:39.664Z,20.70
2018-03-30T12:30:08.087Z,20.70
2018-03-30T12:32:36.104Z,20.70
2018-03-30T12:35:03.895Z,20.70
2018-03-30T12:37:31.694Z,20.70
2018-03-30T12:39:59.415Z,20.70
2018-03-30T12:42:27.885Z,20.70
2018-03-30T12:44:56.553Z,20.70
2018-03-30T12:47:24.854Z,20.70
2018-03-30T12:49:53.226Z,20.70
2018-03-30T12:52:20.942Z,20.70
2018-03-30T12:54:48.647Z,20.70
2018-03-30T12:57:16.443Z,20.70
2018-03-30T12:59:44.132Z,20.70
2018-03-30T13:02:11.892Z,20.70
2018-03-30T13:04:39.552Z,20.70
2018-03-30T13:07:07.111Z,20.70
2018-03-30T13:09:34.659Z,20.60
2018-03-30T13:12:02.403Z,20.70
2018-03-30T13:14:30.328Z,20.60
2018-03-30T13:16:57.874Z,20.60
2018-03-30T13:19:25.499Z,20.60
2018-03-30T13:21:53.160Z,20.60
2018-03-30T13:24:20.845Z,20.60
2018-03-30T13:26:48.422Z,20.60
2018-03-30T13:29:15.964Z,20.60
2018-03-30T13:31:43.533Z,20.50
2018-03-30T13:34:11.256Z,20.50
2018-03-30T13:36:39.322Z,20.50
2018-03-30T13:39:07.015Z,20.50
2018-03-30T13:41:34.696Z,20.50
2018-03-30T13:44:02.334Z,20.50
2018-03-30T13:46:29.858Z,20.50
2018-03-30T13:48:58.134Z,20.50
2018-03-30T13:51:26.431Z,20.40
2018-03-30T13:54:00.544Z,20.40
2018-03-30T13:56:33.526Z,20.40
2018-03-30T13:59:27.014Z,20.40
2018-03-30T14:02:13.456Z,20.40
2018-03-30T14:04:44.350Z,20.40
2018-03-30T14:07:13.604Z,20.40
2018-03-30T14:09:41.159Z,20.40
2018-03-30T14:12:15.423Z,20.30
2018-03-30T14:14:43.215Z,20.30
2018-03-30T14:17:19.623Z,20.30
2018-03-30T14:19:48.078Z,20.30
2018-03-30T14:22:31.245Z,20.30
2018-03-30T14:27:58.615Z,20.30
2018-03-30T14:30:31.514Z,20.30
2018-03-30T14:33:04.581Z,20.30
2018-03-30T14:35:48.218Z,20.40
2018-03-30T14:38:29.236Z,20.40
2018-03-30T14:40:57.652Z,20.30
2018-03-30T14:43:33.938Z,20.30
2018-03-30T14:49:21.897Z,20.40
2018-03-30T14:51:51.914Z,20.40
2018-03-30T14:54:22.855Z,20.40
2018-03-30T14:56:54.011Z,20.30
2018-03-30T14:59:38.506Z,20.40
2018-03-30T15:05:25.887Z,20.40
2018-03-30T15:07:55.806Z,20.40
2018-03-30T15:10:44.882Z,20.40
2018-03-30T15:13:15.894Z,20.40
2018-03-30T15:15:50.016Z,20.40
2018-03-30T15:21:21.078Z,20.40
2018-03-30T15:23:53.940Z,20.40
2018-03-30T15:26:21.635Z,20.40
2018-03-30T15:28:50.108Z,20.40
2018-03-30T15:31:21.951Z,20.40
2018-03-30T15:34:05.615Z,20.40
2018-03-30T15:36:50.795Z,20.50
2018-03-30T15:39:18.550Z,20.50
2018-03-30T15:41:49.804Z,20.50
2018-03-30T15:44:17.510Z,20.50
2018-03-30T15:46:48.831Z,20.50
2018-03-30T15:49:19.119Z,20.50
2018-03-30T15:51:48.951Z,20.50
2018-03-30T15:54:16.044Z,20.50
2018-03-30T16:05:33.267Z,20.50
2018-03-30T16:08:01.159Z,20.50
2018-03-30T16:10:31.405Z,20.50
2018-03-30T16:12:59.907Z,20.50
2018-03-30T16:15:27.464Z,20.60
2018-03-30T16:17:55.192Z,20.50
2018-03-30T16:20:22.472Z,20.60
2018-03-30T16:22:49.817Z,20.60
2018-03-30T16:25:16.873Z,20.50
2018-03-30T16:27:44.088Z,20.60
2018-03-30T16:30:11.394Z,20.60
2018-03-30T16:32:39.248Z,20.60
2018-03-30T16:35:06.296Z,20.60
2018-03-30T16:37:33.513Z,20.60
2018-03-30T16:40:00.559Z,20.60
2018-03-30T16:42:28.175Z,20.60
2018-03-30T16:44:56.037Z,20.60
2018-03-30T16:47:23.878Z,20.60
2018-03-30T16:49:50.959Z,20.60
2018-03-30T16:52:18.007Z,20.60
2018-03-30T16:54:45.064Z,20.60
2018-03-30T16:57:12.242Z,20.60
2018-03-30T16:59:39.788Z,20.60
2018-03-30T17:02:06.984Z,20.60
2018-03-30T17:04:34.199Z,20.60
2018-03-30T17:07:01.288Z,20.60
2018-03-30T17:09:29.122Z,20.60
2018-03-30T17:14:47.087Z,20.60
2018-03-30T17:17:14.359Z,20.60
2018-03-30T17:19:41.440Z,20.60
2018-03-30T17:22:08.590Z,20.60
2018-03-30T17:24:35.636Z,20.60
2018-03-30T17:27:02.819Z,20.60
2018-03-30T17:29:31.237Z,20.60
2018-03-30T17:31:58.292Z,20.50
2018-03-30T17:34:26.683Z,20.60
2018-03-30T17:36:53.916Z,20.50
2018-03-30T17:39:22.255Z,20.60
2018-03-30T17:41:50.980Z,20.50
2018-03-30T17:44:18.397Z,20.60
2018-03-30T17:46:46.910Z,20.50
2018-03-30T17:49:14.402Z,20.50
2018-03-30T17:51:44.085Z,20.60
2018-03-30T17:54:12.326Z,20.50
2018-03-30T17:56:39.749Z,20.60
2018-03-30T17:59:07.379Z,20.60
2018-03-30T18:01:34.936Z,20.60
2018-03-30T18:04:02.560Z,20.50
2018-03-30T18:06:29.804Z,20.50
2018-03-30T18:08:57.498Z,20.60
2018-03-30T18:11:27.118Z,20.60
2018-03-30T18:13:54.317Z,20.60
2018-03-30T18:16:24.088Z,20.60
2018-03-30T18:18:52.139Z,20.60
2018-03-30T18:21:20.841Z,20.60
2018-03-30T18:23:49.301Z,20.60
2018-03-30T18:26:17.953Z,20.60
2018-03-30T18:28:46.315Z,20.60
2018-03-30T18:31:15.715Z,20.50
2018-03-30T18:33:43.489Z,20.60
2018-03-30T18:36:12.189Z,20.60
2018-03-30T18:38:39.845Z,20.60
2018-03-30T18:41:09.817Z,20.60
2018-03-30T18:43:37.046Z,20.50
2018-03-30T18:46:04.318Z,20.60
2018-03-30T18:48:31.498Z,20.50
2018-03-30T18:50:59.442Z,20.60
2018-03-30T18:53:26.865Z,20.50
2018-03-30T18:55:54.037Z,20.60
2018-03-30T18:58:21.273Z,20.60
2018-03-30T19:00:48.576Z,20.60
2018-03-30T19:03:16.523Z,20.50
2018-03-30T19:05:44.723Z,20.50
2018-03-30T19:08:12.679Z,20.50
2018-03-30T19:10:40.684Z,20.50
2018-03-30T19:13:07.911Z,20.50
2018-03-30T19:15:35.368Z,20.50
2018-03-30T19:18:03.218Z,20.50
2018-03-30T19:20:31.104Z,20.50
2018-03-30T19:22:58.452Z,20.50
2018-03-30T19:25:26.252Z,20.50
2018-03-30T19:27:53.494Z,20.50
2018-03-30T19:30:20.754Z,20.50
2018-03-30T19:32:48.174Z,20.50
2018-03-30T19:35:16.015Z,20.50
2018-03-30T19:37:43.119Z,20.50
2018-03-30T19:40:10.335Z,20.50
2018-03-30T19:42:38.259Z,20.50
2018-03-30T19:45:05.974Z,20.50
2018-03-30T19:47:33.880Z,20.40
2018-03-30T19:50:01.003Z,20.50
2018-03-30T19:52:28.098Z,20.40
2018-03-30T19:54:55.452Z,20.50
2018-03-30T19:57:22.924Z,20.50
2018-03-30T19:59:51.476Z,20.40
2018-03-30T20:02:18.644Z,20.40
2018-03-30T20:04:45.899Z,20.50
2018-03-30T20:07:12.987Z,20.50
2018-03-30T20:09:41.014Z,20.40
2018-03-30T20:12:08.095Z,20.40
2018-03-30T20:14:36.328Z,20.40
2018-03-30T20:17:03.367Z,20.40
2018-03-30T20:19:30.439Z,20.40
2018-03-30T20:22:12.697Z,20.40
2018-03-30T20:24:39.997Z,20.40
2018-03-30T20:27:07.336Z,20.40
2018-03-30T20:29:34.398Z,20.40
2018-03-30T20:32:01.640Z,20.40
2018-03-30T20:34:33.668Z,20.40
2018-03-30T20:37:00.891Z,20.40
2018-03-30T20:39:27.987Z,20.40
2018-03-30T20:41:56.040Z,20.40
2018-03-30T20:44:23.528Z,20.40
2018-03-30T20:46:50.767Z,20.40
2018-03-30T20:49:17.918Z,20.40
2018-03-30T20:51:45.080Z,20.40
2018-03-30T20:54:12.314Z,20.40
2018-03-30T20:56:39.695Z,20.40
2018-03-30T20:59:06.778Z,20.40
2018-03-30T21:01:33.896Z,20.40
2018-03-30T21:04:01.133Z,20.40
2018-03-30T21:06:28.219Z,20.40
2018-03-30T21:08:56.303Z,20.40
2018-03-30T21:11:23.487Z,20.40
2018-03-30T21:13:50.743Z,20.40
2018-03-30T21:16:17.971Z,20.40
2018-03-30T21:18:45.208Z,20.40
2018-03-30T21:21:12.405Z,20.40
2018-03-30T21:23:39.827Z,20.40
2018-03-30T21:26:06.975Z,20.40
2018-03-30T21:28:34.044Z,20.40
2018-03-30T21:31:01.219Z,20.40
2018-03-30T21:33:29.167Z,20.40
2018-03-30T21:41:38.113Z,20.40
2018-03-30T21:44:06.423Z,20.40
2018-03-30T21:46:33.640Z,20.40
2018-03-30T21:49:01.052Z,20.40
2018-03-30T21:51:29.407Z,20.40
2018-03-30T21:53:56.475Z,20.40
2018-03-30T21:56:24.276Z,20.40
2018-03-30T21:58:51.716Z,20.40
2018-03-30T22:01:18.929Z,20.40
2018-03-30T22:03:45.995Z,20.30
2018-03-30T22:09:06.691Z,20.30
2018-03-30T22:11:33.953Z,20.30
2018-03-30T22:14:01.114Z,20.30
2018-03-30T22:16:28.222Z,20.30
2018-03-30T22:18:55.291Z,20.30
2018-03-30T22:21:22.379Z,20.30
2018-03-30T22:23:49.880Z,20.30
2018-03-30T22:26:17.044Z,20.30
2018-03-30T22:28:44.242Z,20.30
2018-03-30T22:31:11.447Z,20.30
2018-03-30T22:33:38.792Z,20.30
2018-03-30T22:36:06.132Z,20.20
2018-03-30T22:38:33.418Z,20.20
2018-03-30T22:41:00.654Z,20.20
2018-03-30T22:43:28.023Z,20.20
2018-03-30T22:45:55.595Z,20.20
2018-03-30T22:48:22.689Z,20.20
2018-03-30T22:50:50.507Z,20.20
2018-03-30T22:53:18.348Z,20.20
2018-03-30T22:55:45.563Z,20.10
2018-03-30T22:58:12.735Z,20.10
2018-03-30T23:00:40.203Z,20.10
2018-03-30T23:03:07.588Z,20.20
2018-03-30T23:05:35.432Z,20.20
2018-03-30T23:08:02.819Z,20.10
2018-03-30T23:10:29.814Z,20.10
2018-03-30T23:12:57.769Z,20.10
2018-03-30T23:15:25.002Z,20.10
2018-03-30T23:17:52.187Z,20.10
2018-03-30T23:20:19.306Z,20.10
2018-03-30T23:22:46.543Z,20.10
2018-03-30T23:25:13.768Z,20.10
2018-03-30T23:27:40.827Z,20.10
2018-03-30T23:30:07.930Z,20.10
2018-03-30T23:32:35.113Z,20.10
2018-03-30T23:35:02.321Z,20.00
2018-03-30T23:37:29.487Z,20.10
2018-03-30T23:39:56.667Z,20.00
2018-03-30T23:42:23.800Z,20.00
2018-03-30T23:44:50.920Z,20.00
2018-03-30T23:47:18.187Z,20.00
2018-03-30T23:49:45.372Z,20.00
2018-03-30T23:52:13.303Z,20.00
2018-03-30T23:54:40.556Z,20.00
2018-03-30T23:57:07.806Z,20.00
2018-03-30T23:59:34.878Z,20.00
